createdAt,value
2023-01-15T00:02:41.077Z,84.26
2023-01-15T00:05:26.659Z,85.52
2023-01-15T00:08:12.270Z,85.44
2023-01-15T00:10:57.634Z,85.74
2023-01-15T00:13:43.469Z,84.71
2023-01-15T00:16:29.014Z,85.77
2023-01-15T00:19:14.671Z,85.11
2023-01-15T00:22:00.492Z,83.23
2023-01-15T00:25:04.678Z,83.73
2023-01-15T00:27:50.456Z,83.08
2023-01-15T00:30:41.136Z,83.63
2023-01-15T00:33:26.265Z,82.04
2023-01-15T00:36:11.625Z,83.85
2023-01-15T00:38:58.552Z,82.72
2023-01-15T00:41:43.884Z,83.29
2023-01-15T00:44:29.523Z,84.20
2023-01-15T00:47:16.380Z,81.50
2023-01-15T00:50:03.988Z,80.88
2023-01-15T00:52:49.696Z,81.95
2023-01-15T00:55:35.132Z,83.44
2023-01-15T00:58:20.539Z,81.25
2023-01-15T01:01:06.115Z,82.46
2023-01-15T01:03:53.133Z,83.38
2023-01-15T01:06:41.080Z,82.27
2023-01-15T01:09:26.411Z,82.03
2023-01-15T01:12:11.798Z,80.19
2023-01-15T01:14:57.178Z,83.28
2023-01-15T01:17:42.370Z,82.51
2023-01-15T01:20:27.748Z,82.20
2023-01-15T01:23:13.008Z,81.78
2023-01-15T01:25:58.382Z,83.27
2023-01-15T01:28:44.119Z,83.17
2023-01-15T01:31:29.692Z,82.13
2023-01-15T01:34:15.200Z,83.90
2023-01-15T01:37:00.715Z,81.80
2023-01-15T01:39:46.152Z,82.76
2023-01-15T01:42:31.583Z,83.65
2023-01-15T01:45:27.441Z,82.86
2023-01-15T01:48:17.246Z,81.78
2023-01-15T01:51:05.901Z,83.25
2023-01-15T01:53:51.696Z,82.82
2023-01-15T01:56:37.744Z,83.45
2023-01-15T01:59:25.844Z,82.33
2023-01-15T02:02:12.686Z,82.52
2023-01-15T02:04:59.227Z,83.04
2023-01-15T02:07:46.529Z,82.52
2023-01-15T02:10:31.922Z,84.48
2023-01-15T02:13:31.973Z,83.91
2023-01-15T02:16:50.516Z,84.39
2023-01-15T02:20:17.590Z,83.34
2023-01-15T02:23:27.958Z,84.43
2023-01-15T02:26:39.183Z,83.14
2023-01-15T02:29:36.650Z,83.78
2023-01-15T02:32:34.845Z,83.92
2023-01-15T02:35:27.368Z,84.72
2023-01-15T02:38:18.144Z,81.83
2023-01-15T02:41:16.607Z,82.15
2023-01-15T02:44:07.432Z,82.71
2023-01-15T02:46:55.861Z,81.82
2023-01-15T02:49:45.387Z,82.59
2023-01-15T02:52:59.676Z,84.59
2023-01-15T02:55:51.903Z,83.86
2023-01-15T02:58:42.589Z,83.16
2023-01-15T03:01:37.094Z,83.62
2023-01-15T03:04:30.950Z,83.11
2023-01-15T03:07:32.404Z,83.44
2023-01-15T03:10:18.369Z,82.17
2023-01-15T03:13:05.484Z,83.80
2023-01-15T03:16:36.017Z,83.06
2023-01-15T03:19:33.992Z,83.03
2023-01-15T03:22:28.830Z,83.62
2023-01-15T03:25:23.731Z,82.44
2023-01-15T03:28:14.207Z,82.93
2023-01-15T03:30:59.959Z,83.16
2023-01-15T03:33:45.669Z,83.12
2023-01-15T03:36:35.365Z,82.49
2023-01-15T03:39:21.321Z,82.70
2023-01-15T03:42:45.623Z,84.72
2023-01-15T03:45:37.649Z,83.74
2023-01-15T03:48:30.164Z,84.53
2023-01-15T03:51:22.956Z,84.10
2023-01-15T03:54:21.691Z,83.53
2023-01-15T03:57:50.125Z,82.69
2023-01-15T04:00:41.896Z,83.87
2023-01-15T04:03:30.629Z,82.15
2023-01-15T04:06:16.470Z,83.08
2023-01-15T04:09:05.222Z,84.65
2023-01-15T04:11:51.600Z,84.22
2023-01-15T04:14:37.104Z,84.04
2023-01-15T04:17:28.117Z,84.75
2023-01-15T04:20:13.729Z,83.55
2023-01-15T04:23:01.513Z,84.31
2023-01-15T04:25:46.858Z,85.10
2023-01-15T04:28:34.306Z,84.14
2023-01-15T04:31:19.951Z,84.46
2023-01-15T04:34:05.686Z,83.73
2023-01-15T04:36:51.403Z,84.07
2023-01-15T04:39:36.672Z,83.94
2023-01-15T04:42:40.548Z,84.34
2023-01-15T04:45:26.221Z,84.79
2023-01-15T04:48:15.490Z,85.80
2023-01-15T04:51:05.316Z,84.55
2023-01-15T04:53:50.897Z,83.78
2023-01-15T04:56:42.455Z,84.89
2023-01-15T04:59:28.112Z,84.23
2023-01-15T05:02:15.221Z,84.34
2023-01-15T05:05:01.255Z,84.41
2023-01-15T05:07:46.662Z,83.89
2023-01-15T05:10:31.950Z,85.04
2023-01-15T05:13:17.154Z,85.81
2023-01-15T05:16:13.269Z,85.77
2023-01-15T05:19:02.500Z,86.20
2023-01-15T05:21:48.239Z,85.07
2023-01-15T05:24:33.556Z,84.48
2023-01-15T05:27:18.808Z,85.53
2023-01-15T05:30:04.345Z,84.93
2023-01-15T05:32:49.877Z,84.82
2023-01-15T05:35:35.228Z,84.87
2023-01-15T05:38:20.585Z,84.81
2023-01-15T05:41:27.658Z,85.00
2023-01-15T05:44:14.283Z,85.06
2023-01-15T05:47:03.122Z,85.82
2023-01-15T05:49:50.241Z,85.69
2023-01-15T05:52:35.926Z,85.57
2023-01-15T05:55:23.091Z,86.79
2023-01-15T05:58:08.452Z,87.09
2023-01-15T06:00:55.062Z,86.62
2023-01-15T06:03:41.809Z,86.02
2023-01-15T06:06:27.975Z,84.97
2023-01-15T06:09:13.976Z,85.67
2023-01-15T06:11:59.577Z,84.83
2023-01-15T06:14:45.057Z,85.64
2023-01-15T06:17:30.501Z,85.58
2023-01-15T06:20:16.017Z,85.96
2023-01-15T06:23:01.982Z,86.30
2023-01-15T06:25:47.410Z,85.80
2023-01-15T06:28:34.101Z,85.88
2023-01-15T06:31:22.505Z,86.58
2023-01-15T06:34:07.869Z,86.07
2023-01-15T06:36:53.335Z,86.35
2023-01-15T06:39:38.742Z,85.96
2023-01-15T06:42:42.456Z,86.31
2023-01-15T06:45:51.477Z,86.10
2023-01-15T06:48:36.849Z,85.96
2023-01-15T06:51:22.618Z,85.36
2023-01-15T06:54:09.408Z,85.27
2023-01-15T06:56:54.785Z,85.75
2023-01-15T06:59:40.141Z,86.30
2023-01-15T07:02:25.574Z,85.21
2023-01-15T07:05:10.885Z,84.53
2023-01-15T07:07:58.346Z,84.49
2023-01-15T07:10:43.805Z,84.00
2023-01-15T07:13:29.146Z,83.43
2023-01-15T07:16:27.695Z,84.20
2023-01-15T07:19:13.830Z,84.54
2023-01-15T07:21:59.038Z,82.08
2023-01-15T07:24:44.506Z,81.80
2023-01-15T07:27:29.624Z,83.52
2023-01-15T07:30:15.690Z,82.21
2023-01-15T07:33:01.542Z,83.56
2023-01-15T07:35:47.073Z,81.21
2023-01-15T07:38:32.428Z,81.17
2023-01-15T07:41:36.788Z,81.54
2023-01-15T07:44:41.271Z,81.79
2023-01-15T07:47:46.320Z,80.07
2023-01-15T07:50:31.739Z,82.13
2023-01-15T07:53:17.245Z,80.06
2023-01-15T07:56:02.447Z,81.56
2023-01-15T07:58:50.287Z,79.78
2023-01-15T08:01:35.582Z,77.77
2023-01-15T08:04:21.415Z,77.88
2023-01-15T08:07:08.113Z,78.74
2023-01-15T08:09:53.638Z,76.33
2023-01-15T08:12:58.045Z,78.14
2023-01-15T08:15:44.208Z,79.62
2023-01-15T08:18:29.912Z,75.77
2023-01-15T08:21:15.942Z,78.07
2023-01-15T08:24:01.443Z,76.88
2023-01-15T08:26:46.876Z,74.88
2023-01-15T08:29:32.310Z,76.84
2023-01-15T08:32:17.586Z,75.52
2023-01-15T08:35:03.023Z,76.19
2023-01-15T08:37:48.380Z,79.96
2023-01-15T08:40:36.329Z,78.35
2023-01-15T08:43:22.006Z,74.34
2023-01-15T08:46:09.819Z,77.05
2023-01-15T08:48:55.435Z,74.18
2023-01-15T08:51:41.036Z,76.53
2023-01-15T08:54:26.644Z,78.84
2023-01-15T08:57:13.724Z,77.58
2023-01-15T08:59:59.044Z,75.93
2023-01-15T09:02:44.251Z,75.91
2023-01-15T09:05:29.934Z,75.37
2023-01-15T09:08:15.233Z,76.16
2023-01-15T09:11:03.352Z,74.21
2023-01-15T09:13:50.339Z,76.57
2023-01-15T09:16:37.089Z,77.46
2023-01-15T09:19:22.559Z,77.94
2023-01-15T09:22:07.905Z,76.12
2023-01-15T09:24:53.151Z,76.03
2023-01-15T09:27:38.697Z,75.12
2023-01-15T09:30:24.069Z,76.62
2023-01-15T09:33:11.260Z,76.53
2023-01-15T09:35:57.018Z,75.15
2023-01-15T09:38:42.639Z,77.09
2023-01-15T09:41:57.815Z,77.86
2023-01-15T09:44:56.265Z,78.73
2023-01-15T09:48:02.979Z,77.71
2023-01-15T09:51:16.528Z,77.63
2023-01-15T09:54:05.491Z,77.19
2023-01-15T09:56:51.825Z,77.64
2023-01-15T09:59:41.169Z,77.19
2023-01-15T10:02:38.158Z,71.93
2023-01-15T10:05:29.315Z,75.98
2023-01-15T10:08:34.648Z,81.06
2023-01-15T10:12:03.604Z,78.56
2023-01-15T10:15:02.411Z,78.49
2023-01-15T10:17:53.671Z,79.57
2023-01-15T10:21:22.033Z,80.66
2023-01-15T10:24:28.695Z,80.89
2023-01-15T10:27:22.262Z,81.01
2023-01-15T10:30:40.295Z,80.60
2023-01-15T10:33:52.827Z,81.72
2023-01-15T10:36:56.151Z,81.90
2023-01-15T10:39:49.573Z,82.66
2023-01-15T10:43:02.560Z,81.97
2023-01-15T10:45:56.568Z,82.42
2023-01-15T10:48:44.366Z,82.74
2023-01-15T10:51:43.497Z,83.66
2023-01-15T10:54:49.930Z,83.35
2023-01-15T10:58:09.981Z,85.25
2023-01-15T11:01:08.879Z,84.25
2023-01-15T11:03:54.664Z,84.88
2023-01-15T11:06:41.162Z,84.54
2023-01-15T11:09:34.951Z,85.34
2023-01-15T11:12:25.481Z,85.06
2023-01-15T11:15:35.144Z,85.84
2023-01-15T11:18:53.263Z,85.90
2023-01-15T11:21:42.463Z,85.93
2023-01-15T11:24:29.269Z,86.56
2023-01-15T11:27:18.192Z,86.37
2023-01-15T11:30:07.763Z,86.60
2023-01-15T11:32:58.752Z,85.59
2023-01-15T11:35:58.406Z,85.67
2023-01-15T11:38:46.572Z,86.03
2023-01-15T11:41:54.601Z,84.99
2023-01-15T11:44:58.256Z,85.15
2023-01-15T11:48:12.996Z,84.99
2023-01-15T11:51:05.732Z,84.54
2023-01-15T11:53:55.973Z,84.97
2023-01-15T11:56:45.584Z,84.47
2023-01-15T11:59:31.105Z,84.19
2023-01-15T12:02:50.852Z,84.21
2023-01-15T12:05:37.043Z,84.08
2023-01-15T12:08:32.529Z,84.71
2023-01-15T12:11:45.716Z,84.81
2023-01-15T12:14:53.105Z,84.28
2023-01-15T12:18:00.439Z,84.47
2023-01-15T12:21:02.490Z,84.57
2023-01-15T12:24:09.650Z,84.80
2023-01-15T12:27:32.363Z,85.18
2023-01-15T12:30:33.460Z,85.24
2023-01-15T12:33:44.001Z,84.79
2023-01-15T12:36:45.161Z,84.29
2023-01-15T12:39:47.922Z,84.12
2023-01-15T12:42:55.037Z,84.13
2023-01-15T12:45:54.378Z,84.15
2023-01-15T12:49:15.071Z,84.19
2023-01-15T12:52:14.045Z,83.86
2023-01-15T12:55:14.401Z,84.34
2023-01-15T12:58:02.877Z,84.63
2023-01-15T13:00:49.652Z,84.27
2023-01-15T13:03:49.527Z,84.16
2023-01-15T13:06:39.537Z,84.73
2023-01-15T13:09:31.078Z,83.67
2023-01-15T13:12:17.295Z,83.84
2023-01-15T13:15:04.183Z,83.71
2023-01-15T13:18:05.043Z,83.09
2023-01-15T13:20:52.224Z,83.80
2023-01-15T13:24:16.665Z,83.45
2023-01-15T13:27:10.324Z,83.96
2023-01-15T13:30:13.891Z,83.42
2023-01-15T13:33:16.887Z,83.08
2023-01-15T13:36:29.233Z,83.05
2023-01-15T13:39:20.618Z,83.11
2023-01-15T13:42:25.769Z,83.61
2023-01-15T13:45:49.846Z,82.80
2023-01-15T13:48:47.427Z,83.18
2023-01-15T13:51:43.246Z,83.32
2023-01-15T13:54:28.744Z,83.84
2023-01-15T13:57:35.238Z,83.77
2023-01-15T14:00:38.935Z,83.09
2023-01-15T14:03:37.656Z,83.07
2023-01-15T14:06:22.956Z,83.60
2023-01-15T14:09:29.543Z,82.89
2023-01-15T14:12:49.988Z,82.75
2023-01-15T14:16:13.110Z,82.74
2023-01-15T14:19:01.701Z,82.32
2023-01-15T14:22:06.140Z,82.53
2023-01-15T14:25:10.186Z,82.55
2023-01-15T14:28:22.112Z,82.33
2023-01-15T14:31:12.785Z,82.05
2023-01-15T14:34:23.071Z,82.70
2023-01-15T14:37:17.771Z,82.01
2023-01-15T14:40:06.428Z,81.69
2023-01-15T14:43:01.997Z,82.93
2023-01-15T14:45:50.094Z,82.82
2023-01-15T14:48:39.345Z,82.64
2023-01-15T14:51:28.401Z,82.14
2023-01-15T14:54:19.761Z,82.59
2023-01-15T14:57:08.413Z,82.92
2023-01-15T15:00:00.749Z,83.28
2023-01-15T15:02:48.865Z,83.06
2023-01-15T15:05:35.175Z,83.02
2023-01-15T15:08:33.314Z,84.13
2023-01-15T15:11:43.873Z,83.89
2023-01-15T15:14:30.812Z,83.51
2023-01-15T15:17:28.463Z,83.79
2023-01-15T15:20:32.706Z,84.21
2023-01-15T15:23:24.487Z,84.51
2023-01-15T15:26:33.892Z,84.10
2023-01-15T15:29:21.886Z,84.49
2023-01-15T15:32:14.858Z,84.45
2023-01-15T15:35:00.526Z,84.13
2023-01-15T15:37:46.878Z,85.81
2023-01-15T15:40:36.672Z,85.20
2023-01-15T15:43:50.742Z,85.64
2023-01-15T15:46:58.316Z,84.86
2023-01-15T15:49:46.137Z,84.25
2023-01-15T15:52:36.871Z,84.29
2023-01-15T15:55:25.961Z,84.45
2023-01-15T15:58:36.896Z,84.35
2023-01-15T16:01:22.429Z,84.15
2023-01-15T16:04:17.709Z,83.93
2023-01-15T16:07:13.419Z,84.27
2023-01-15T16:10:39.617Z,84.11
2023-01-15T16:13:30.413Z,84.01
2023-01-15T16:16:17.356Z,84.19
2023-01-15T16:19:03.842Z,84.08
2023-01-15T16:21:50.170Z,82.98
2023-01-15T16:24:36.925Z,82.84
2023-01-15T16:27:23.189Z,81.75
2023-01-15T16:30:14.922Z,82.03
2023-01-15T16:33:07.203Z,81.86
2023-01-15T16:35:59.829Z,82.01
2023-01-15T16:38:49.129Z,81.60
2023-01-15T16:41:42.241Z,81.98
2023-01-15T16:44:36.259Z,82.48
2023-01-15T16:47:27.958Z,82.32
2023-01-15T16:50:23.315Z,81.46
2023-01-15T16:53:32.547Z,81.68
2023-01-15T16:56:45.302Z,81.58
2023-01-15T16:59:31.869Z,81.32
2023-01-15T17:02:22.046Z,81.09
2023-01-15T17:05:17.627Z,80.84
2023-01-15T17:08:03.254Z,79.95
2023-01-15T17:10:57.092Z,80.40
2023-01-15T17:13:42.999Z,79.48
2023-01-15T17:16:28.580Z,79.69
2023-01-15T17:19:16.065Z,80.96
2023-01-15T17:22:02.027Z,80.18
2023-01-15T17:24:52.884Z,79.79
2023-01-15T17:27:38.283Z,80.71
2023-01-15T17:30:31.140Z,80.38
2023-01-15T17:33:16.542Z,80.75
2023-01-15T17:36:01.916Z,81.66
2023-01-15T17:38:47.374Z,81.24
2023-01-15T17:41:32.651Z,80.98
2023-01-15T17:44:18.113Z,81.15
2023-01-15T17:47:04.265Z,81.14
2023-01-15T17:49:49.921Z,81.06
2023-01-15T17:52:35.447Z,80.63
2023-01-15T17:56:01.267Z,81.15
2023-01-15T17:59:05.733Z,79.92
2023-01-15T18:02:09.637Z,79.47
2023-01-15T18:05:13.709Z,79.06
2023-01-15T18:08:02.899Z,79.68
2023-01-15T18:10:48.418Z,79.33
2023-01-15T18:13:34.940Z,80.24
2023-01-15T18:16:20.846Z,79.19
2023-01-15T18:19:06.263Z,79.51
2023-01-15T18:21:51.543Z,80.65
2023-01-15T18:24:37.009Z,80.76
2023-01-15T18:27:22.404Z,80.27
2023-01-15T18:30:08.671Z,79.48
2023-01-15T18:32:54.815Z,79.13
2023-01-15T18:35:40.492Z,78.76
2023-01-15T18:38:26.192Z,78.94
2023-01-15T18:41:35.272Z,80.02
2023-01-15T18:44:41.912Z,79.74
2023-01-15T18:47:29.960Z,80.10
2023-01-15T18:50:15.523Z,80.98
2023-01-15T18:53:01.377Z,82.18
2023-01-15T18:55:46.610Z,81.63
2023-01-15T18:58:32.002Z,80.75
2023-01-15T19:01:17.527Z,81.44
2023-01-15T19:04:06.093Z,81.46
2023-01-15T19:06:52.680Z,81.20
2023-01-15T19:09:38.966Z,80.37
2023-01-15T19:12:24.564Z,79.76
2023-01-15T19:15:32.230Z,80.54
2023-01-15T19:18:36.192Z,81.37
2023-01-15T19:21:21.893Z,81.02
2023-01-15T19:24:07.514Z,81.60
2023-01-15T19:26:54.484Z,81.17
2023-01-15T19:29:40.424Z,80.93
2023-01-15T19:32:25.835Z,80.55
2023-01-15T19:35:11.724Z,80.58
2023-01-15T19:37:57.936Z,81.00
2023-01-15T19:40:43.479Z,82.67
2023-01-15T19:43:47.353Z,83.05
2023-01-15T19:46:52.084Z,82.11
2023-01-15T19:49:56.860Z,80.36
2023-01-15T19:52:42.832Z,81.72
2023-01-15T19:55:31.015Z,81.71
2023-01-15T19:58:16.841Z,81.90
2023-01-15T20:01:02.724Z,82.02
2023-01-15T20:03:48.292Z,80.32
2023-01-15T20:06:33.569Z,81.81
2023-01-15T20:09:19.013Z,81.42
2023-01-15T20:12:23.327Z,81.77
2023-01-15T20:15:09.675Z,81.30
2023-01-15T20:17:55.179Z,82.28
2023-01-15T20:20:41.157Z,81.56
2023-01-15T20:23:26.549Z,81.37
2023-01-15T20:26:14.474Z,81.97
2023-01-15T20:28:59.816Z,83.15
2023-01-15T20:31:45.264Z,81.81
2023-01-15T20:34:32.221Z,81.77
2023-01-15T20:37:17.898Z,81.80
2023-01-15T20:40:05.361Z,83.00
2023-01-15T20:43:30.217Z,83.18
2023-01-15T20:46:15.897Z,83.12
2023-01-15T20:49:19.847Z,82.16
2023-01-15T20:52:05.234Z,81.64
2023-01-15T20:54:50.845Z,81.71
2023-01-15T20:57:38.212Z,82.44
2023-01-15T21:00:25.311Z,81.98
2023-01-15T21:03:11.846Z,82.60
2023-01-15T21:05:58.162Z,82.68
2023-01-15T21:08:46.012Z,83.32
2023-01-15T21:11:31.704Z,82.85
2023-01-15T21:14:17.059Z,82.70
2023-01-15T21:17:02.384Z,82.73
2023-01-15T21:19:47.744Z,82.99
2023-01-15T21:22:33.291Z,82.83
2023-01-15T21:25:19.188Z,83.07
2023-01-15T21:28:04.996Z,83.20
2023-01-15T21:30:50.600Z,82.44
2023-01-15T21:33:36.472Z,82.20
2023-01-15T21:36:22.698Z,82.04
2023-01-15T21:39:11.618Z,82.87
2023-01-15T21:42:16.172Z,82.19
2023-01-15T21:45:01.757Z,81.74
2023-01-15T21:47:47.260Z,81.78
2023-01-15T21:50:32.697Z,82.10
2023-01-15T21:53:20.250Z,81.34
2023-01-15T21:56:07.161Z,82.00
2023-01-15T21:58:52.714Z,82.88
2023-01-15T22:01:38.135Z,82.17
2023-01-15T22:04:24.546Z,82.92
2023-01-15T22:07:11.440Z,82.57
2023-01-15T22:09:56.950Z,83.13
2023-01-15T22:12:43.213Z,83.15
2023-01-15T22:15:28.740Z,82.84
2023-01-15T22:18:14.205Z,82.43
2023-01-15T22:21:05.381Z,82.96
2023-01-15T22:23:51.003Z,83.06
2023-01-15T22:26:37.924Z,83.00
2023-01-15T22:29:25.539Z,82.50
2023-01-15T22:32:13.218Z,82.79
2023-01-15T22:34:58.351Z,82.59
2023-01-15T22:37:43.835Z,82.16
2023-01-15T22:40:29.190Z,82.82
2023-01-15T22:43:14.409Z,83.67
2023-01-15T22:46:12.042Z,82.99
2023-01-15T22:48:57.869Z,83.13
2023-01-15T22:51:44.023Z,82.95
2023-01-15T22:54:29.681Z,83.71
2023-01-15T22:57:16.616Z,82.81
2023-01-15T23:00:02.736Z,82.46
2023-01-15T23:03:07.987Z,82.36
2023-01-15T23:05:53.206Z,83.33
2023-01-15T23:08:38.893Z,82.97
2023-01-15T23:11:25.050Z,82.52
2023-01-15T23:14:11.331Z,82.65
2023-01-15T23:16:56.539Z,83.51
2023-01-15T23:19:41.863Z,83.57
2023-01-15T23:22:29.317Z,82.81
2023-01-15T23:25:14.638Z,83.27
2023-01-15T23:27:59.975Z,83.27
2023-01-15T23:30:45.385Z,82.98
2023-01-15T23:33:30.687Z,82.89
2023-01-15T23:36:16.486Z,84.01
2023-01-15T23:39:02.958Z,84.30
2023-01-15T23:42:06.996Z,83.50
2023-01-15T23:45:10.870Z,83.43
2023-01-15T23:47:56.216Z,82.13
2023-01-15T23:50:41.612Z,83.41
2023-01-15T23:53:27.135Z,83.80
2023-01-15T23:56:12.284Z,83.23
2023-01-15T23:58:58.561Z,83.17
